createdAt,value
2022-12-06T00:00:40.810Z,101606.59
2022-12-06T00:03:46.606Z,101603.09
2022-12-06T00:06:52.515Z,101603.94
2022-12-06T00:09:55.482Z,101601.34
2022-12-06T00:12:58.482Z,101602.25
2022-12-06T00:16:03.837Z,101593.44
2022-12-06T00:19:08.477Z,101602.31
2022-12-06T00:22:11.453Z,101597.00
2022-12-06T00:25:14.474Z,101594.34
2022-12-06T00:28:17.517Z,101587.22
2022-12-06T00:31:22.185Z,101577.47
2022-12-06T00:34:26.806Z,101571.25
2022-12-06T00:37:29.798Z,101580.16
2022-12-06T00:40:32.685Z,101589.94
2022-12-06T00:43:36.664Z,101592.63
2022-12-06T00:46:40.464Z,101592.63
2022-12-06T00:49:44.870Z,101590.91
2022-12-06T00:52:47.887Z,101589.16
2022-12-06T00:55:52.034Z,101586.50
2022-12-06T00:58:55.663Z,101589.16
2022-12-06T01:01:58.754Z,101592.75
2022-12-06T01:05:03.075Z,101587.44
2022-12-06T01:08:06.646Z,101591.81
2022-12-06T01:11:10.655Z,101586.50
2022-12-06T01:14:13.618Z,101585.69
2022-12-06T01:17:16.573Z,101578.63
2022-12-06T01:20:20.887Z,101583.97
2022-12-06T01:23:23.942Z,101582.16
2022-12-06T01:26:28.743Z,101570.66
2022-12-06T01:29:31.777Z,101557.38
2022-12-06T01:32:34.769Z,101554.72
2022-12-06T01:35:41.675Z,101556.53
2022-12-06T01:38:44.979Z,101556.53
2022-12-06T01:41:47.992Z,101561.84
2022-12-06T01:44:54.286Z,101559.13
2022-12-06T01:47:57.262Z,101559.13
2022-12-06T01:51:02.974Z,101557.34
2022-12-06T01:54:10.514Z,101555.59
2022-12-06T01:57:17.005Z,101560.91
2022-12-06T02:00:20.821Z,101553.88
2022-12-06T02:03:27.051Z,101560.03
2022-12-06T02:06:33.410Z,101554.72
2022-12-06T02:09:37.954Z,101546.81
2022-12-06T02:12:40.881Z,101541.47
2022-12-06T02:15:57.477Z,101546.81
2022-12-06T02:19:09.576Z,101546.81
2022-12-06T02:22:20.816Z,101540.56
2022-12-06T02:25:50.990Z,101536.97
2022-12-06T02:29:24.451Z,101534.31
2022-12-06T02:32:33.501Z,101536.97
2022-12-06T02:35:41.414Z,101526.41
2022-12-06T02:38:48.189Z,101516.66
2022-12-06T02:41:57.368Z,101525.53
2022-12-06T02:45:04.794Z,101521.97
2022-12-06T02:48:10.962Z,101528.25
2022-12-06T02:51:16.273Z,101522.03
2022-12-06T02:54:20.097Z,101521.16
2022-12-06T02:57:34.638Z,101522.03
2022-12-06T03:00:40.374Z,101518.47
2022-12-06T03:03:52.622Z,101517.53
2022-12-06T03:07:14.038Z,101512.22
2022-12-06T03:10:30.445Z,101503.34
2022-12-06T03:13:40.721Z,101506.03
2022-12-06T03:16:49.334Z,101505.19
2022-12-06T03:19:59.597Z,101498.97
2022-12-06T03:23:07.103Z,101490.13
2022-12-06T03:26:14.467Z,101494.56
2022-12-06T03:29:20.890Z,101488.41
2022-12-06T03:32:27.104Z,101488.41
2022-12-06T03:35:35.302Z,101486.59
2022-12-06T03:38:45.929Z,101489.22
2022-12-06T03:41:54.523Z,101485.63
2022-12-06T03:44:57.842Z,101494.47
2022-12-06T03:48:06.018Z,101482.84
2022-12-06T03:51:15.494Z,101489.91
2022-12-06T03:54:18.887Z,101491.66
2022-12-06T03:57:21.924Z,101491.66
2022-12-06T04:00:24.993Z,101490.72
2022-12-06T04:03:27.925Z,101488.88
2022-12-06T04:06:32.497Z,101480.94
2022-12-06T04:09:56.230Z,101480.06
2022-12-06T04:13:02.352Z,101481.00
2022-12-06T04:16:25.704Z,101470.38
2022-12-06T04:19:27.750Z,101465.94
2022-12-06T04:22:49.543Z,101461.50
2022-12-06T04:25:52.527Z,101457.97
2022-12-06T04:29:13.422Z,101452.72
2022-12-06T04:32:33.643Z,101442.97
2022-12-06T04:35:53.706Z,101429.75
2022-12-06T04:38:58.208Z,101434.19
2022-12-06T04:42:19.074Z,101430.69
2022-12-06T04:45:21.992Z,101433.38
2022-12-06T04:48:25.037Z,101430.78
2022-12-06T04:51:28.414Z,101435.19
2022-12-06T04:54:32.965Z,101435.19
2022-12-06T04:57:36.011Z,101429.88
2022-12-06T05:00:43.568Z,101427.25
2022-12-06T05:03:46.670Z,101432.56
2022-12-06T05:06:49.782Z,101427.31
2022-12-06T05:09:54.074Z,101428.22
2022-12-06T05:12:57.154Z,101422.06
2022-12-06T05:16:02.197Z,101421.19
2022-12-06T05:19:05.278Z,101430.03
2022-12-06T05:22:08.226Z,101425.63
2022-12-06T05:25:12.708Z,101426.50
2022-12-06T05:28:15.637Z,101422.09
2022-12-06T05:31:19.619Z,101418.50
2022-12-06T05:34:22.690Z,101414.91
2022-12-06T05:37:25.640Z,101417.53
2022-12-06T05:40:29.995Z,101423.69
2022-12-06T05:43:33.325Z,101426.28
2022-12-06T05:46:36.255Z,101413.78
2022-12-06T05:49:39.214Z,101417.25
2022-12-06T05:52:42.187Z,101418.94
2022-12-06T05:55:46.722Z,101413.56
2022-12-06T05:58:49.710Z,101410.84
2022-12-06T06:01:52.781Z,101412.56
2022-12-06T06:04:55.745Z,101422.34
2022-12-06T06:07:59.206Z,101416.19
2022-12-06T06:11:03.721Z,101412.66
2022-12-06T06:14:06.833Z,101416.19
2022-12-06T06:17:10.268Z,101411.84
2022-12-06T06:20:14.082Z,101409.16
2022-12-06T06:23:17.118Z,101415.41
2022-12-06T06:26:22.073Z,101418.13
2022-12-06T06:29:25.226Z,101419.03
2022-12-06T06:32:28.183Z,101407.59
2022-12-06T06:35:31.135Z,101412.06
2022-12-06T06:38:34.249Z,101423.59
2022-12-06T06:41:38.987Z,101419.22
2022-12-06T06:44:41.983Z,101420.94
2022-12-06T06:47:45.011Z,101425.47
2022-12-06T06:50:52.646Z,101431.66
2022-12-06T06:53:58.698Z,101429.00
2022-12-06T06:57:03.464Z,101431.72
2022-12-06T07:00:08.228Z,101430.78
2022-12-06T07:03:15.283Z,101434.41
2022-12-06T07:06:18.735Z,101429.97
2022-12-06T07:09:21.774Z,101436.19
2022-12-06T07:12:26.094Z,101435.34
2022-12-06T07:15:29.108Z,101432.72
2022-12-06T07:18:32.126Z,101439.84
2022-12-06T07:21:35.091Z,101432.72
2022-12-06T07:24:42.111Z,101437.19
2022-12-06T07:27:48.030Z,101442.44
2022-12-06T07:30:51.131Z,101438.84
2022-12-06T07:33:55.873Z,101440.53
2022-12-06T07:36:58.841Z,101440.50
2022-12-06T07:40:02.216Z,101442.22
2022-12-06T07:43:23.919Z,101443.03
2022-12-06T07:46:26.878Z,101438.47
2022-12-06T07:49:30.530Z,101444.56
2022-12-06T07:52:34.386Z,101443.59
2022-12-06T07:55:37.450Z,101443.53
2022-12-06T07:58:42.447Z,101442.59
2022-12-06T08:01:45.568Z,101441.69
2022-12-06T08:04:48.936Z,101445.22
2022-12-06T08:07:52.040Z,101440.78
2022-12-06T08:10:55.278Z,101444.34
2022-12-06T08:13:59.650Z,101438.22
2022-12-06T08:17:02.819Z,101445.31
2022-12-06T08:20:07.446Z,101445.38
2022-12-06T08:23:10.473Z,101439.25
2022-12-06T08:26:16.116Z,101445.47
2022-12-06T08:29:20.958Z,101436.69
2022-12-06T08:32:24.013Z,101432.31
2022-12-06T08:35:27.114Z,101435.88
2022-12-06T08:38:30.302Z,101439.47
2022-12-06T08:41:59.557Z,101442.13
2022-12-06T08:45:04.166Z,101447.47
2022-12-06T08:48:07.526Z,101440.38
2022-12-06T08:51:10.586Z,101439.50
2022-12-06T08:54:15.507Z,101438.66
2022-12-06T08:57:18.509Z,101440.44
2022-12-06T09:00:23.474Z,101438.66
2022-12-06T09:03:27.748Z,101440.44
2022-12-06T09:06:31.505Z,101442.22
2022-12-06T09:09:34.694Z,101442.28
2022-12-06T09:12:37.739Z,101440.50
2022-12-06T09:15:42.248Z,101444.03
2022-12-06T09:18:45.909Z,101435.34
2022-12-06T09:21:48.936Z,101435.50
2022-12-06T09:24:51.906Z,101431.16
2022-12-06T09:27:55.188Z,101435.56
2022-12-06T09:30:59.804Z,101432.72
2022-12-06T09:34:02.878Z,101424.56
2022-12-06T09:37:10.099Z,101423.38
2022-12-06T09:40:21.283Z,101424.03
2022-12-06T09:43:40.409Z,101428.28
2022-12-06T09:46:58.959Z,101417.41
2022-12-06T09:50:13.182Z,101416.38
2022-12-06T09:53:23.793Z,101409.13
2022-12-06T09:56:31.943Z,101402.75
2022-12-06T09:59:44.787Z,101401.78
2022-12-06T10:03:22.989Z,101402.66
2022-12-06T10:06:34.922Z,101393.78
2022-12-06T10:09:46.955Z,101392.06
2022-12-06T10:13:00.086Z,101380.59
2022-12-06T10:16:13.461Z,101383.31
2022-12-06T10:19:27.320Z,101384.19
2022-12-06T10:22:42.679Z,101377.19
2022-12-06T10:25:58.127Z,101373.63
2022-12-06T10:29:09.125Z,101377.25
2022-12-06T10:32:18.855Z,101378.16
2022-12-06T10:35:37.027Z,101376.44
2022-12-06T10:38:45.665Z,101372.03
2022-12-06T10:41:56.702Z,101374.69
2022-12-06T10:45:25.118Z,101382.66
2022-12-06T10:48:34.145Z,101374.75
2022-12-06T10:51:44.499Z,101372.16
2022-12-06T10:54:58.425Z,101373.00
2022-12-06T10:58:12.563Z,101374.81
2022-12-06T11:01:20.496Z,101359.75
2022-12-06T11:04:26.225Z,101357.16
2022-12-06T11:07:36.568Z,101353.63
2022-12-06T11:10:45.259Z,101350.97
2022-12-06T11:13:52.982Z,101349.25
2022-12-06T11:17:00.774Z,101343.94
2022-12-06T11:20:11.782Z,101337.75
2022-12-06T11:23:22.821Z,101333.28
2022-12-06T11:26:36.112Z,101320.91
2022-12-06T11:29:39.103Z,101326.22
2022-12-06T11:32:42.882Z,101329.81
2022-12-06T11:35:47.982Z,101331.59
2022-12-06T11:38:51.337Z,101328.94
2022-12-06T11:41:57.922Z,101327.16
2022-12-06T11:45:07.852Z,101335.13
2022-12-06T11:48:16.483Z,101323.63
2022-12-06T11:51:21.622Z,101321.84
2022-12-06T11:54:30.315Z,101318.31
2022-12-06T11:57:42.540Z,101327.97
2022-12-06T12:00:58.294Z,101318.16
2022-12-06T12:04:21.251Z,101317.25
2022-12-06T12:07:26.830Z,101318.13
2022-12-06T12:10:34.837Z,101305.66
2022-12-06T12:13:45.154Z,101310.97
2022-12-06T12:16:51.406Z,101310.97
2022-12-06T12:20:00.213Z,101306.53
2022-12-06T12:23:06.998Z,101315.47
2022-12-06T12:26:14.546Z,101313.63
2022-12-06T12:29:20.741Z,101310.97
2022-12-06T12:32:23.736Z,101303.88
2022-12-06T12:35:28.417Z,101298.56
2022-12-06T12:38:38.451Z,101302.97
2022-12-06T12:41:44.726Z,101294.97
2022-12-06T12:44:49.187Z,101293.22
2022-12-06T12:48:00.161Z,101292.31
2022-12-06T12:51:05.773Z,101285.25
2022-12-06T12:54:23.989Z,101282.59
2022-12-06T12:57:27.100Z,101277.34
2022-12-06T13:00:36.422Z,101286.19
2022-12-06T13:03:51.195Z,101278.25
2022-12-06T13:06:59.427Z,101281.78
2022-12-06T13:10:06.142Z,101279.13
2022-12-06T13:13:16.411Z,101273.81
2022-12-06T13:16:28.902Z,101269.41
2022-12-06T13:19:35.292Z,101264.09
2022-12-06T13:22:45.282Z,101260.56
2022-12-06T13:25:55.093Z,101264.09
2022-12-06T13:29:02.826Z,101258.78
2022-12-06T13:32:15.159Z,101255.31
2022-12-06T13:35:24.971Z,101264.13
2022-12-06T13:38:32.511Z,101265.94
2022-12-06T13:42:13.640Z,101272.13
2022-12-06T13:45:43.428Z,101271.28
2022-12-06T13:48:52.753Z,101272.19
2022-12-06T13:51:55.976Z,101266.88
2022-12-06T13:54:59.080Z,101275.72
2022-12-06T13:58:40.086Z,101274.78
2022-12-06T14:01:44.729Z,101272.13
2022-12-06T14:04:49.146Z,101276.53
2022-12-06T14:07:58.509Z,101274.75
2022-12-06T14:11:15.393Z,101272.09
2022-12-06T14:14:20.321Z,101271.13
2022-12-06T14:17:53.032Z,101266.75
2022-12-06T14:20:52.431Z,101265.81
2022-12-06T14:23:55.466Z,101267.56
2022-12-06T14:27:05.954Z,101262.25
2022-12-06T14:30:23.513Z,101259.50
2022-12-06T14:33:28.429Z,101258.63
2022-12-06T14:36:35.883Z,101267.44
2022-12-06T14:39:38.872Z,101263.88
2022-12-06T14:43:02.544Z,101261.22
2022-12-06T14:46:07.987Z,101252.41
2022-12-06T14:49:32.303Z,101260.38
2022-12-06T14:52:36.665Z,101246.28
2022-12-06T14:55:54.079Z,101245.34
2022-12-06T14:58:59.095Z,101251.59
2022-12-06T15:02:02.247Z,101255.16
2022-12-06T15:05:05.673Z,101245.47
2022-12-06T15:08:34.570Z,101245.47
2022-12-06T15:11:57.377Z,101248.06
2022-12-06T15:15:00.457Z,101246.31
2022-12-06T15:18:13.858Z,101248.97
2022-12-06T15:21:18.887Z,101248.13
2022-12-06T15:24:25.149Z,101243.66
2022-12-06T15:27:28.216Z,101246.38
2022-12-06T15:30:31.110Z,101242.81
2022-12-06T15:33:34.240Z,101246.38
2022-12-06T15:36:37.311Z,101237.50
2022-12-06T15:39:42.209Z,101249.03
2022-12-06T15:42:45.195Z,101241.94
2022-12-06T15:45:48.439Z,101251.72
2022-12-06T15:48:52.539Z,101242.00
2022-12-06T15:51:55.602Z,101246.38
2022-12-06T15:55:00.329Z,101251.72
2022-12-06T15:58:03.709Z,101254.38
2022-12-06T16:01:12.202Z,101257.03
2022-12-06T16:04:17.537Z,101255.25
2022-12-06T16:07:20.599Z,101255.31
2022-12-06T16:10:42.613Z,101249.13
2022-12-06T16:13:48.829Z,101262.34
2022-12-06T16:16:51.903Z,101257.03
2022-12-06T16:20:12.402Z,101261.47
2022-12-06T16:24:04.546Z,101248.13
2022-12-06T16:26:59.432Z,101251.59
2022-12-06T16:30:02.501Z,101249.75
2022-12-06T16:33:07.708Z,101253.31
2022-12-06T16:36:13.515Z,101248.88
2022-12-06T16:39:16.597Z,101245.34
2022-12-06T16:42:20.950Z,101250.59
2022-12-06T16:45:24.051Z,101257.72
2022-12-06T16:48:27.305Z,101257.72
2022-12-06T16:51:32.801Z,101257.72
2022-12-06T16:54:35.848Z,101255.06
2022-12-06T16:57:40.218Z,101255.06
2022-12-06T17:00:43.266Z,101254.19
2022-12-06T17:03:49.520Z,101251.47
2022-12-06T17:06:52.580Z,101258.63
2022-12-06T17:09:55.916Z,101255.91
2022-12-06T17:13:00.240Z,101261.22
2022-12-06T17:16:03.369Z,101260.38
2022-12-06T17:19:08.636Z,101265.72
2022-12-06T17:22:12.703Z,101262.16
2022-12-06T17:25:17.311Z,101263.97
2022-12-06T17:28:21.791Z,101258.63
2022-12-06T17:31:24.823Z,101257.75
2022-12-06T17:34:27.851Z,101267.56
2022-12-06T17:37:30.898Z,101264.91
2022-12-06T17:40:34.056Z,101271.13
2022-12-06T17:43:37.471Z,101258.72
2022-12-06T17:46:41.311Z,101260.50
2022-12-06T17:49:44.374Z,101268.47
2022-12-06T17:52:48.446Z,101270.22
2022-12-06T17:55:51.452Z,101271.13
2022-12-06T17:58:57.088Z,101272.94
2022-12-06T18:02:17.857Z,101271.13
2022-12-06T18:05:21.523Z,101275.59
2022-12-06T18:08:24.611Z,101277.41
2022-12-06T18:11:28.804Z,101274.78
2022-12-06T18:14:33.568Z,101275.66
2022-12-06T18:17:37.011Z,101270.41
2022-12-06T18:20:41.075Z,101269.53
2022-12-06T18:24:05.456Z,101265.94
2022-12-06T18:27:07.447Z,101262.34
2022-12-06T18:30:12.765Z,101252.66
2022-12-06T18:33:19.325Z,101248.25
2022-12-06T18:36:24.883Z,101242.13
2022-12-06T18:39:28.148Z,101244.72
2022-12-06T18:42:31.250Z,101243.88
2022-12-06T18:45:35.841Z,101247.44
2022-12-06T18:48:40.695Z,101243.03
2022-12-06T18:51:43.703Z,101246.56
2022-12-06T18:54:46.692Z,101237.69
2022-12-06T18:57:49.795Z,101246.56
2022-12-06T19:00:54.175Z,101242.13
2022-12-06T19:03:59.583Z,101240.25
2022-12-06T19:07:02.691Z,101231.38
2022-12-06T19:10:06.782Z,101234.03
2022-12-06T19:13:09.918Z,101233.16
2022-12-06T19:16:14.355Z,101233.94
2022-12-06T19:19:19.939Z,101233.06
2022-12-06T19:22:22.987Z,101234.81
2022-12-06T19:25:26.035Z,101232.16
2022-12-06T19:28:29.882Z,101236.53
2022-12-06T19:31:34.366Z,101230.31
2022-12-06T19:34:37.436Z,101245.34
2022-12-06T19:37:40.435Z,101245.34
2022-12-06T19:40:43.469Z,101240.81
2022-12-06T19:44:03.565Z,101247.88
2022-12-06T19:47:07.985Z,101245.16
2022-12-06T19:50:11.702Z,101233.63
2022-12-06T19:53:14.776Z,101234.50
2022-12-06T19:56:20.110Z,101230.06
2022-12-06T19:59:23.674Z,101230.06
2022-12-06T20:02:28.147Z,101233.59
2022-12-06T20:05:31.250Z,101235.38
2022-12-06T20:08:34.374Z,101241.59
2022-12-06T20:11:56.486Z,101231.78
2022-12-06T20:14:59.552Z,101232.66
2022-12-06T20:18:03.981Z,101230.88
2022-12-06T20:21:07.550Z,101220.22
2022-12-06T20:24:11.244Z,101222.88
2022-12-06T20:27:14.294Z,101222.88
2022-12-06T20:30:17.987Z,101212.22
2022-12-06T20:33:22.815Z,101215.78
2022-12-06T20:36:26.388Z,101207.78
2022-12-06T20:39:29.432Z,101214.03
2022-12-06T20:42:33.285Z,101207.81
2022-12-06T20:45:36.631Z,101204.25
2022-12-06T20:48:41.434Z,101205.16
2022-12-06T20:51:49.524Z,101193.66
2022-12-06T20:54:55.651Z,101199.84
2022-12-06T20:57:59.081Z,101202.50
2022-12-06T21:01:02.835Z,101206.09
2022-12-06T21:04:08.258Z,101210.47
2022-12-06T21:07:11.258Z,101205.16
2022-12-06T21:10:14.316Z,101199.84
2022-12-06T21:13:17.346Z,101201.66
2022-12-06T21:16:23.544Z,101201.66
2022-12-06T21:19:28.007Z,101195.47
2022-12-06T21:22:31.127Z,101197.19
2022-12-06T21:25:37.025Z,101198.13
2022-12-06T21:28:40.097Z,101184.75
2022-12-06T21:31:43.671Z,101188.28
2022-12-06T21:34:48.141Z,101187.34
2022-12-06T21:37:51.215Z,101186.41
2022-12-06T21:40:57.510Z,101191.66
2022-12-06T21:44:04.601Z,101195.19
2022-12-06T21:47:07.822Z,101192.53
2022-12-06T21:50:13.503Z,101196.91
2022-12-06T21:53:17.419Z,101194.25
2022-12-06T21:56:22.592Z,101198.66
2022-12-06T21:59:26.789Z,101193.34
2022-12-06T22:02:29.864Z,101192.44
2022-12-06T22:05:34.262Z,101198.59
2022-12-06T22:08:38.825Z,101201.25
2022-12-06T22:11:41.847Z,101191.47
2022-12-06T22:14:44.865Z,101194.16
2022-12-06T22:17:47.827Z,101187.94
2022-12-06T22:21:00.275Z,101194.16
2022-12-06T22:24:03.409Z,101184.44
2022-12-06T22:27:06.545Z,101184.47
2022-12-06T22:30:10.787Z,101175.63
2022-12-06T22:33:13.737Z,101178.34
2022-12-06T22:36:19.347Z,101174.00
2022-12-06T22:39:22.318Z,101175.84
2022-12-06T22:42:25.269Z,101174.97
2022-12-06T22:45:28.298Z,101172.31
2022-12-06T22:48:31.574Z,101173.22
2022-12-06T22:51:38.437Z,101162.56
2022-12-06T22:54:41.402Z,101166.19
2022-12-06T22:57:44.295Z,101172.41
2022-12-06T23:00:47.268Z,101174.25
2022-12-06T23:03:51.917Z,101166.28
2022-12-06T23:06:56.274Z,101155.66
2022-12-06T23:09:59.669Z,101161.91
2022-12-06T23:13:02.857Z,101162.84
2022-12-06T23:16:10.363Z,101158.47
2022-12-06T23:19:13.470Z,101154.06
2022-12-06T23:22:17.854Z,101156.72
2022-12-06T23:25:20.810Z,101159.38
2022-12-06T23:28:24.799Z,101151.38
2022-12-06T23:31:29.602Z,101149.59
2022-12-06T23:34:32.635Z,101146.94
2022-12-06T23:37:36.987Z,101150.50
2022-12-06T23:40:39.975Z,101154.06
2022-12-06T23:43:43.740Z,101142.53
2022-12-06T23:46:46.788Z,101145.16
2022-12-06T23:49:49.874Z,101148.72
2022-12-06T23:52:54.320Z,101148.72
2022-12-06T23:55:59.939Z,101138.09
2022-12-06T23:59:05.206Z,101126.56
